createdAt,value
2023-04-19T00:01:44.826Z,101164.03
2023-04-19T00:04:47.497Z,101166.50
2023-04-19T00:07:49.252Z,101170.19
2023-04-19T00:10:50.618Z,101161.31
2023-04-19T00:13:52.091Z,101167.50
2023-04-19T00:16:53.521Z,101160.75
2023-04-19T00:19:55.048Z,101166.94
2023-04-19T00:22:58.355Z,101156.22
2023-04-19T00:26:03.877Z,101159.72
2023-04-19T00:29:05.261Z,101162.22
2023-04-19T00:32:08.633Z,101156.97
2023-04-19T00:35:10.091Z,101159.88
2023-04-19T00:38:11.591Z,101156.50
2023-04-19T00:41:13.048Z,101157.41
2023-04-19T00:44:14.872Z,101145.09
2023-04-19T00:47:17.198Z,101148.66
2023-04-19T00:50:20.456Z,101148.66
2023-04-19T00:53:21.840Z,101156.69
2023-04-19T00:56:24.634Z,101147.09
2023-04-19T00:59:27.624Z,101154.09
2023-04-19T01:02:29.157Z,101143.63
2023-04-19T01:05:30.956Z,101148.94
2023-04-19T01:08:32.362Z,101147.78
2023-04-19T01:11:34.013Z,101143.63
2023-04-19T01:14:35.487Z,101137.56
2023-04-19T01:17:37.367Z,101136.72
2023-04-19T01:20:40.511Z,101134.06
2023-04-19T01:23:41.985Z,101137.63
2023-04-19T01:26:43.384Z,101132.34
2023-04-19T01:29:44.807Z,101129.78
2023-04-19T01:32:46.400Z,101130.53
2023-04-19T01:35:48.268Z,101146.38
2023-04-19T01:38:49.899Z,101140.19
2023-04-19T01:41:51.308Z,101139.22
2023-04-19T01:44:52.688Z,101134.72
2023-04-19T01:47:55.911Z,101130.22
2023-04-19T01:50:57.335Z,101131.94
2023-04-19T01:53:58.786Z,101131.13
2023-04-19T01:57:00.163Z,101123.25
2023-04-19T02:00:02.537Z,101125.91
2023-04-19T02:03:04.301Z,101121.63
2023-04-19T02:06:05.994Z,101110.97
2023-04-19T02:09:08.204Z,101106.50
2023-04-19T02:12:09.618Z,101113.53
2023-04-19T02:15:11.106Z,101106.41
2023-04-19T02:18:13.449Z,101096.84
2023-04-19T02:21:15.126Z,101093.50
2023-04-19T02:24:16.868Z,101095.47
2023-04-19T02:27:18.620Z,101090.22
2023-04-19T02:30:20.199Z,101090.19
2023-04-19T02:33:22.414Z,101092.75
2023-04-19T02:36:23.927Z,101094.47
2023-04-19T02:39:25.318Z,101091.75
2023-04-19T02:42:26.694Z,101086.88
2023-04-19T02:45:28.323Z,101086.16
2023-04-19T02:48:29.751Z,101087.19
2023-04-19T02:51:31.274Z,101081.88
2023-04-19T02:54:33.757Z,101084.25
2023-04-19T02:57:35.377Z,101078.22
2023-04-19T03:00:37.519Z,101078.50
2023-04-19T03:03:44.201Z,101086.44
2023-04-19T03:06:45.870Z,101084.66
2023-04-19T03:09:47.957Z,101068.03
2023-04-19T03:12:49.490Z,101075.91
2023-04-19T03:15:51.028Z,101071.44
2023-04-19T03:18:56.345Z,101067.91
2023-04-19T03:22:01.290Z,101073.22
2023-04-19T03:25:05.743Z,101060.00
2023-04-19T03:28:07.210Z,101062.69
2023-04-19T03:31:34.325Z,101056.72
2023-04-19T03:34:35.987Z,101053.09
2023-04-19T03:37:37.451Z,101055.81
2023-04-19T03:40:39.698Z,101055.03
2023-04-19T03:43:43.867Z,101052.41
2023-04-19T03:46:46.543Z,101048.00
2023-04-19T03:49:50.247Z,101047.13
2023-04-19T03:52:52.627Z,101041.72
2023-04-19T03:55:54.060Z,101040.97
2023-04-19T03:58:56.333Z,101041.75
2023-04-19T04:01:57.770Z,101041.56
2023-04-19T04:04:59.384Z,101042.56
2023-04-19T04:08:00.984Z,101038.25
2023-04-19T04:11:02.403Z,101043.53
2023-04-19T04:14:04.646Z,101043.53
2023-04-19T04:17:10.745Z,101045.25
2023-04-19T04:20:13.725Z,101047.09
2023-04-19T04:23:16.400Z,101043.53
2023-04-19T04:26:25.249Z,101043.47
2023-04-19T04:29:56.660Z,101046.88
2023-04-19T04:32:58.918Z,101042.69
2023-04-19T04:36:01.249Z,101049.06
2023-04-19T04:39:11.812Z,101043.00
2023-04-19T04:42:13.430Z,101053.38
2023-04-19T04:45:18.228Z,101047.09
2023-04-19T04:48:19.951Z,101046.16
2023-04-19T04:51:21.501Z,101047.00
2023-04-19T04:54:27.098Z,101055.81
2023-04-19T04:57:29.332Z,101057.84
2023-04-19T05:00:31.970Z,101050.91
2023-04-19T05:03:38.332Z,101053.59
2023-04-19T05:06:44.456Z,101054.44
2023-04-19T05:09:46.447Z,101054.41
2023-04-19T05:12:52.499Z,101061.38
2023-04-19T05:15:54.214Z,101061.22
2023-04-19T05:18:56.329Z,101060.34
2023-04-19T05:21:59.354Z,101059.28
2023-04-19T05:25:02.017Z,101061.66
2023-04-19T05:28:04.278Z,101055.66
2023-04-19T05:31:15.086Z,101059.28
2023-04-19T05:34:26.463Z,101064.47
2023-04-19T05:37:30.517Z,101061.66
2023-04-19T05:40:32.101Z,101058.84
2023-04-19T05:43:33.578Z,101058.59
2023-04-19T05:46:36.310Z,101062.97
2023-04-19T05:49:38.420Z,101062.63
2023-04-19T05:52:57.189Z,101051.03
2023-04-19T05:55:59.012Z,101050.75
2023-04-19T05:59:01.015Z,101054.97
2023-04-19T06:02:02.977Z,101053.13
2023-04-19T06:05:09.940Z,101062.22
2023-04-19T06:08:16.135Z,101062.97
2023-04-19T06:11:24.903Z,101055.72
2023-04-19T06:14:29.261Z,101063.47
2023-04-19T06:17:31.521Z,101067.88
2023-04-19T06:20:32.897Z,101064.63
2023-04-19T06:23:34.511Z,101070.66
2023-04-19T06:26:36.021Z,101069.41
2023-04-19T06:29:37.558Z,101072.44
2023-04-19T06:32:38.971Z,101072.75
2023-04-19T06:35:40.574Z,101073.19
2023-04-19T06:38:44.409Z,101071.34
2023-04-19T06:41:45.928Z,101066.38
2023-04-19T06:44:51.159Z,101059.53
2023-04-19T06:47:52.586Z,101075.22
2023-04-19T06:50:54.564Z,101070.28
2023-04-19T06:53:55.990Z,101062.53
2023-04-19T06:56:57.417Z,101063.88
2023-04-19T06:59:59.092Z,101058.19
2023-04-19T07:03:01.306Z,101054.97
2023-04-19T07:06:03.128Z,101055.41
2023-04-19T07:09:05.823Z,101055.00
2023-04-19T07:12:07.233Z,101054.81
2023-04-19T07:15:09.251Z,101050.28
2023-04-19T07:18:11.126Z,101050.09
2023-04-19T07:21:13.402Z,101050.91
2023-04-19T07:24:15.167Z,101044.34
2023-04-19T07:27:16.791Z,101042.94
2023-04-19T07:30:18.232Z,101043.28
2023-04-19T07:33:19.740Z,101033.22
2023-04-19T07:36:21.483Z,101034.09
2023-04-19T07:39:22.977Z,101039.19
2023-04-19T07:42:25.348Z,101035.47
2023-04-19T07:45:26.860Z,101039.53
2023-04-19T07:48:28.290Z,101026.84
2023-04-19T07:51:29.731Z,101031.34
2023-04-19T07:54:32.155Z,101035.47
2023-04-19T07:57:35.067Z,101030.06
2023-04-19T08:00:37.757Z,101026.69
2023-04-19T08:03:39.554Z,101031.47
2023-04-19T08:06:41.570Z,101030.47
2023-04-19T08:09:43.118Z,101029.56
2023-04-19T08:12:57.365Z,101034.06
2023-04-19T08:19:10.723Z,101033.78
2023-04-19T08:22:12.235Z,101030.66
2023-04-19T08:25:13.804Z,101028.97
2023-04-19T08:28:17.116Z,101023.59
2023-04-19T08:31:20.788Z,101026.13
2023-04-19T08:34:22.363Z,101031.00
2023-04-19T08:37:23.778Z,101025.59
2023-04-19T08:40:25.274Z,101026.47
2023-04-19T08:43:33.250Z,101025.41
2023-04-19T08:46:35.330Z,101019.91
2023-04-19T08:49:41.386Z,101014.81
2023-04-19T08:52:54.816Z,101020.69
2023-04-19T08:59:15.578Z,101007.84
2023-04-19T09:02:19.810Z,101007.56
2023-04-19T09:05:21.917Z,100995.81
2023-04-19T09:08:28.976Z,100997.59
2023-04-19T09:11:38.714Z,100993.66
2023-04-19T09:14:53.729Z,100979.44
2023-04-19T09:18:07.856Z,100979.16
2023-04-19T09:21:09.706Z,100977.22
2023-04-19T09:24:12.207Z,100972.19
2023-04-19T09:27:19.493Z,100974.19
2023-04-19T09:30:32.436Z,100973.47
2023-04-19T09:33:40.552Z,100960.94
2023-04-19T09:36:42.354Z,100962.69
2023-04-19T09:39:43.753Z,100960.22
2023-04-19T09:45:53.620Z,100948.00
2023-04-19T09:48:55.329Z,100939.69
2023-04-19T09:51:57.214Z,100950.06
2023-04-19T09:55:03.141Z,100939.03
2023-04-19T09:58:07.999Z,100938.78
2023-04-19T10:01:15.452Z,100935.25
2023-04-19T10:04:37.761Z,100937.31
2023-04-19T10:07:44.287Z,100934.53
2023-04-19T10:10:47.368Z,100934.56
2023-04-19T10:13:51.716Z,100921.19
2023-04-19T10:16:53.218Z,100929.31
2023-04-19T10:20:06.773Z,100924.13
2023-04-19T10:23:09.302Z,100930.31
2023-04-19T10:26:11.175Z,100935.31
2023-04-19T10:29:13.109Z,100922.44
2023-04-19T10:32:14.842Z,100923.44
2023-04-19T10:35:20.936Z,100931.41
2023-04-19T10:38:47.853Z,100924.34
2023-04-19T10:41:59.368Z,100927.84
2023-04-19T10:45:32.479Z,100919.56
2023-04-19T10:48:37.885Z,100920.63
2023-04-19T10:51:43.141Z,100919.69
2023-04-19T10:54:44.787Z,100911.13
2023-04-19T10:58:07.638Z,100906.34
2023-04-19T11:01:47.262Z,100903.22
2023-04-19T11:04:48.745Z,100897.91
2023-04-19T11:07:50.242Z,100898.91
2023-04-19T11:10:53.352Z,100886.03
2023-04-19T11:13:56.536Z,100887.47
2023-04-19T11:16:58.201Z,100884.59
2023-04-19T11:20:08.311Z,100880.53
2023-04-19T11:23:17.810Z,100879.22
2023-04-19T11:26:19.220Z,100865.88
2023-04-19T11:29:21.741Z,100871.81
2023-04-19T11:32:23.252Z,100862.22
2023-04-19T11:35:26.637Z,100866.56
2023-04-19T11:38:28.720Z,100861.53
2023-04-19T11:41:30.132Z,100858.78
2023-04-19T11:44:31.781Z,100856.97
2023-04-19T11:47:33.787Z,100856.09
2023-04-19T11:50:39.831Z,100852.19
2023-04-19T11:53:41.462Z,100852.09
2023-04-19T11:56:59.597Z,100846.00
2023-04-19T12:00:08.239Z,100850.38
2023-04-19T12:03:16.338Z,100846.50
2023-04-19T12:06:26.704Z,100847.31
2023-04-19T12:09:28.151Z,100840.38
2023-04-19T12:12:32.789Z,100834.94
2023-04-19T12:15:44.860Z,100841.44
2023-04-19T12:18:50.351Z,100838.78
2023-04-19T12:21:51.749Z,100831.25
2023-04-19T12:24:54.289Z,100829.47
2023-04-19T12:27:56.254Z,100821.56
2023-04-19T12:30:57.713Z,100824.16
2023-04-19T12:33:59.183Z,100822.28
2023-04-19T12:37:00.823Z,100821.19
2023-04-19T12:40:02.186Z,100816.28
2023-04-19T12:43:05.988Z,100809.34
2023-04-19T12:46:07.555Z,100800.31
2023-04-19T12:49:08.958Z,100804.56
2023-04-19T12:52:10.418Z,100807.75
2023-04-19T12:55:11.860Z,100793.06
2023-04-19T12:58:14.050Z,100786.72
2023-04-19T13:01:16.180Z,100787.22
2023-04-19T13:04:18.334Z,100774.84
2023-04-19T13:07:20.059Z,100776.00
2023-04-19T13:10:21.424Z,100775.00
2023-04-19T13:13:22.869Z,100769.28
2023-04-19T13:16:24.318Z,100758.44
2023-04-19T13:19:26.718Z,100753.41
2023-04-19T13:22:28.282Z,100751.31
2023-04-19T13:25:29.656Z,100740.16
2023-04-19T13:28:31.081Z,100732.19
2023-04-19T13:31:32.591Z,100716.22
2023-04-19T13:34:35.194Z,100721.53
2023-04-19T13:37:36.557Z,100719.50
2023-04-19T13:40:38.260Z,100714.63
2023-04-19T13:43:39.834Z,100716.63
2023-04-19T13:46:41.342Z,100716.91
2023-04-19T13:49:42.931Z,100706.44
2023-04-19T13:52:44.339Z,100694.63
2023-04-19T13:55:45.704Z,100699.63
2023-04-19T13:58:47.184Z,100694.63
2023-04-19T14:01:48.671Z,100693.41
2023-04-19T14:04:50.158Z,100684.75
2023-04-19T14:07:52.356Z,100675.38
2023-04-19T14:10:53.780Z,100679.53
2023-04-19T14:13:55.853Z,100682.59
2023-04-19T14:16:57.480Z,100678.25
2023-04-19T14:19:58.857Z,100674.47
2023-04-19T14:23:00.295Z,100659.19
2023-04-19T14:26:02.007Z,100654.69
2023-04-19T14:29:03.408Z,100658.47
2023-04-19T14:32:20.824Z,100654.78
2023-04-19T14:35:26.137Z,100654.56
2023-04-19T14:38:27.779Z,100659.25
2023-04-19T14:41:29.221Z,100657.78
2023-04-19T14:44:30.590Z,100663.47
2023-04-19T14:47:32.044Z,100667.19
2023-04-19T14:50:33.441Z,100675.50
2023-04-19T14:53:34.854Z,100678.50
2023-04-19T14:56:38.096Z,100689.19
2023-04-19T14:59:39.582Z,100681.22
2023-04-19T15:02:41.230Z,100674.06
2023-04-19T15:05:44.494Z,100656.16
2023-04-19T15:08:46.971Z,100646.66
2023-04-19T15:11:48.450Z,100653.44
2023-04-19T15:14:49.891Z,100647.06
2023-04-19T15:17:52.396Z,100644.47
2023-04-19T15:20:54.673Z,100636.41
2023-04-19T15:23:56.102Z,100633.16
2023-04-19T15:26:58.685Z,100640.03
2023-04-19T15:30:00.351Z,100639.56
2023-04-19T15:33:01.795Z,100637.53
2023-04-19T15:36:03.860Z,100634.00
2023-04-19T15:39:05.859Z,100639.59
2023-04-19T15:42:07.272Z,100641.97
2023-04-19T15:45:09.437Z,100629.50
2023-04-19T15:48:11.446Z,100634.38
2023-04-19T15:51:15.288Z,100630.63
2023-04-19T15:54:16.710Z,100632.53
2023-04-19T15:57:18.739Z,100635.66
2023-04-19T16:00:21.335Z,100641.31
2023-04-19T16:03:23.386Z,100638.41
2023-04-19T16:06:25.123Z,100641.97
2023-04-19T16:09:27.035Z,100642.09
2023-04-19T16:12:28.578Z,100651.59
2023-04-19T16:15:30.318Z,100659.34
2023-04-19T16:18:31.727Z,100650.47
2023-04-19T16:21:33.230Z,100648.47
2023-04-19T16:24:34.627Z,100659.06
2023-04-19T16:27:35.989Z,100655.63
2023-04-19T16:30:37.599Z,100654.03
2023-04-19T16:33:39.104Z,100660.00
2023-04-19T16:36:44.592Z,100663.78
2023-04-19T16:39:46.143Z,100665.56
2023-04-19T16:42:47.618Z,100662.66
2023-04-19T16:45:49.253Z,100662.66
2023-04-19T16:48:50.767Z,100665.19
2023-04-19T16:51:52.212Z,100661.56
2023-04-19T16:54:54.057Z,100662.38
2023-04-19T16:57:55.965Z,100664.03
2023-04-19T17:00:58.252Z,100666.50
2023-04-19T17:04:00.148Z,100663.97
2023-04-19T17:07:01.771Z,100663.84
2023-04-19T17:10:03.380Z,100660.38
2023-04-19T17:13:05.351Z,100663.25
2023-04-19T17:16:07.341Z,100654.75
2023-04-19T17:19:08.804Z,100659.06
2023-04-19T17:22:11.529Z,100657.22
2023-04-19T17:25:12.912Z,100659.19
2023-04-19T17:28:14.311Z,100662.13
2023-04-19T17:31:15.800Z,100661.44
2023-04-19T17:34:18.402Z,100665.81
2023-04-19T17:37:19.998Z,100663.69
2023-04-19T17:40:21.420Z,100663.13
2023-04-19T17:43:23.203Z,100662.78
2023-04-19T17:46:24.673Z,100668.31
2023-04-19T17:49:26.986Z,100670.31
2023-04-19T17:52:28.466Z,100673.66
2023-04-19T17:55:29.851Z,100668.06
2023-04-19T17:58:31.421Z,100678.06
2023-04-19T18:01:34.887Z,100681.16
2023-04-19T18:04:36.605Z,100680.78
2023-04-19T18:07:38.193Z,100694.47
2023-04-19T18:10:39.583Z,100687.66
2023-04-19T18:13:42.353Z,100698.38
2023-04-19T18:16:44.915Z,100694.19
2023-04-19T18:19:46.900Z,100699.56
2023-04-19T18:22:50.143Z,100707.94
2023-04-19T18:25:55.351Z,100713.53
2023-04-19T18:28:56.918Z,100708.47
2023-04-19T18:31:58.606Z,100714.31
2023-04-19T18:35:00.230Z,100713.09
2023-04-19T18:38:01.903Z,100713.94
2023-04-19T18:41:03.402Z,100718.50
2023-04-19T18:47:09.266Z,100729.88
2023-04-19T18:50:11.834Z,100723.03
2023-04-19T18:53:13.302Z,100719.59
2023-04-19T18:56:16.844Z,100723.63
2023-04-19T18:59:18.614Z,100728.97
2023-04-19T19:02:20.305Z,100732.59
2023-04-19T19:05:21.996Z,100731.97
2023-04-19T19:08:23.802Z,100736.66
2023-04-19T19:14:35.435Z,100742.25
2023-04-19T19:17:36.894Z,100735.25
2023-04-19T19:20:38.299Z,100738.13
2023-04-19T19:23:42.448Z,100750.50
2023-04-19T19:26:44.383Z,100743.59
2023-04-19T19:29:46.913Z,100742.78
2023-04-19T19:32:49.212Z,100742.78
2023-04-19T19:35:51.044Z,100746.34
2023-04-19T19:38:52.555Z,100748.13
2023-04-19T19:42:04.620Z,100739.56
2023-04-19T19:45:09.218Z,100742.38
2023-04-19T19:48:10.753Z,100745.44
2023-04-19T19:51:47.589Z,100751.88
2023-04-19T19:54:34.414Z,100753.63
2023-04-19T20:00:47.003Z,100753.97
2023-04-19T20:03:49.979Z,100752.38
2023-04-19T20:09:56.083Z,100746.19
2023-04-19T20:12:58.371Z,100754.19
2023-04-19T20:16:00.654Z,100744.53
2023-04-19T20:19:09.702Z,100743.66
2023-04-19T20:22:11.777Z,100741.34
2023-04-19T20:25:13.483Z,100753.78
2023-04-19T20:28:15.298Z,100748.50
2023-04-19T20:31:16.696Z,100755.56
2023-04-19T20:34:21.657Z,100749.50
2023-04-19T20:37:24.020Z,100756.03
2023-04-19T20:40:26.135Z,100759.63
2023-04-19T20:43:27.516Z,100762.50
2023-04-19T20:46:28.917Z,100754.75
2023-04-19T20:49:30.891Z,100758.41
2023-04-19T20:52:32.570Z,100756.19
2023-04-19T20:55:34.038Z,100750.06
2023-04-19T20:58:35.862Z,100753.59
2023-04-19T21:01:37.370Z,100755.31
2023-04-19T21:04:38.820Z,100755.72
2023-04-19T21:07:40.316Z,100743.59
2023-04-19T21:10:41.694Z,100743.00
2023-04-19T21:13:43.444Z,100750.09
2023-04-19T21:16:45.001Z,100738.81
2023-04-19T21:19:46.507Z,100736.25
2023-04-19T21:22:48.551Z,100739.75
2023-04-19T21:25:50.241Z,100746.75
2023-04-19T21:28:51.903Z,100736.22
2023-04-19T21:31:53.338Z,100734.38
2023-04-19T21:34:54.879Z,100737.00
2023-04-19T21:37:56.246Z,100732.94
2023-04-19T21:40:57.623Z,100737.34
2023-04-19T21:43:59.010Z,100734.75
2023-04-19T21:47:01.119Z,100735.69
2023-04-19T21:50:03.067Z,100728.03
2023-04-19T21:53:04.508Z,100729.78
2023-04-19T21:56:06.134Z,100731.44
2023-04-19T21:59:07.508Z,100726.19
2023-04-19T22:02:09.107Z,100736.94
2023-04-19T22:05:10.683Z,100739.72
2023-04-19T22:08:12.140Z,100730.94
2023-04-19T22:11:13.495Z,100730.97
2023-04-19T22:14:14.903Z,100727.47
2023-04-19T22:17:18.753Z,100719.69
2023-04-19T22:20:21.069Z,100711.25
2023-04-19T22:23:22.469Z,100713.00
2023-04-19T22:26:25.973Z,100707.75
2023-04-19T22:29:27.387Z,100705.25
2023-04-19T22:32:28.803Z,100707.97
2023-04-19T22:35:30.337Z,100705.28
2023-04-19T22:38:32.089Z,100703.63
2023-04-19T22:41:33.469Z,100696.84
2023-04-19T22:44:34.926Z,100697.22
2023-04-19T22:47:37.173Z,100684.03
2023-04-19T22:50:38.740Z,100682.38
2023-04-19T22:53:40.255Z,100690.25
2023-04-19T22:56:41.649Z,100684.91
2023-04-19T22:59:43.075Z,100677.22
2023-04-19T23:02:44.607Z,100678.06
2023-04-19T23:05:47.130Z,100671.19
2023-04-19T23:08:48.603Z,100666.47
2023-04-19T23:11:50.253Z,100668.78
2023-04-19T23:14:51.773Z,100662.66
2023-04-19T23:17:53.234Z,100657.41
2023-04-19T23:20:54.652Z,100654.78
2023-04-19T23:23:56.032Z,100646.28
2023-04-19T23:26:57.400Z,100642.75
2023-04-19T23:29:58.867Z,100634.00
2023-04-19T23:33:00.655Z,100635.78
2023-04-19T23:36:02.058Z,100631.59
2023-04-19T23:39:04.971Z,100631.47
2023-04-19T23:42:06.508Z,100621.63
2023-04-19T23:45:08.923Z,100620.66
2023-04-19T23:48:10.303Z,100605.75
2023-04-19T23:51:12.523Z,100609.00
2023-04-19T23:54:13.963Z,100610.78
2023-04-19T23:57:15.714Z,100601.53
